createdAt,value
2018-10-11T00:00:01.705Z,75.55
2018-10-11T00:05:02.024Z,75.81
2018-10-11T00:10:01.294Z,75.94
2018-10-11T00:15:01.581Z,75.91
2018-10-11T00:20:02.163Z,76.16
2018-10-11T00:25:01.680Z,76.32
2018-10-11T00:30:01.979Z,76.48
2018-10-11T00:35:01.309Z,76.74
2018-10-11T00:40:01.701Z,77.11
2018-10-11T00:45:01.989Z,78.87
2018-10-11T00:50:01.322Z,80.67
2018-10-11T00:55:01.633Z,81.6
2018-10-11T01:00:02.097Z,81.87
2018-10-11T01:05:01.546Z,81.41
2018-10-11T01:10:02.011Z,80.65
2018-10-11T01:15:01.572Z,79.89
2018-10-11T01:20:01.996Z,80.29
2018-10-11T01:25:01.430Z,79.27
2018-10-11T01:30:01.709Z,79.56
2018-10-11T01:35:02.201Z,79.74
2018-10-11T01:40:01.460Z,81.59
2018-10-11T01:45:01.820Z,83.21
2018-10-11T01:50:02.146Z,83.76
2018-10-11T01:55:01.430Z,82.79
2018-10-11T02:00:01.724Z,81.8
2018-10-11T02:05:02.054Z,81.12
2018-10-11T02:10:01.321Z,80.77
2018-10-11T02:15:01.717Z,81.5
2018-10-11T02:20:02.228Z,83.09
2018-10-11T02:25:01.608Z,84.16
2018-10-11T02:30:02.043Z,85.39
2018-10-11T02:35:01.902Z,85.26
2018-10-11T02:40:02.156Z,86.01
2018-10-11T02:45:01.440Z,87.01
2018-10-11T02:50:01.787Z,87.65
2018-10-11T02:55:02.077Z,88.82
2018-10-11T03:00:01.357Z,88.51
2018-10-11T03:05:01.656Z,89.01
2018-10-11T03:10:02.022Z,90.18
2018-10-11T03:15:01.297Z,91.25
2018-10-11T03:20:01.614Z,91.29
2018-10-11T03:25:01.963Z,89.78
2018-10-11T03:30:01.253Z,87.56
2018-10-11T03:35:01.577Z,85.95
2018-10-11T03:40:01.858Z,85.09
2018-10-11T03:45:02.195Z,84.17
2018-10-11T03:50:01.442Z,84.3
2018-10-11T03:55:01.752Z,84.44
2018-10-11T04:00:02.053Z,84.89
2018-10-11T04:05:01.405Z,85.24
2018-10-11T04:10:01.726Z,85.49
2018-10-11T04:15:02.009Z,85.72
2018-10-11T04:20:01.260Z,85.78
2018-10-11T04:25:01.742Z,85.86
2018-10-11T04:30:02.151Z,85.92
2018-10-11T04:35:01.629Z,85.76
2018-10-11T04:40:01.729Z,85.79
2018-10-11T04:45:02.039Z,85.83
2018-10-11T04:50:01.300Z,86.19
2018-10-11T04:55:01.643Z,86.65
2018-10-11T05:00:01.910Z,86.91
2018-10-11T05:05:01.262Z,87.29
2018-10-11T05:10:01.561Z,87.58
2018-10-11T05:15:01.837Z,88.26
2018-10-11T05:20:02.135Z,89.31
2018-10-11T05:25:01.392Z,89.84
2018-10-11T05:30:01.632Z,89.26
2018-10-11T05:35:01.931Z,88.96
2018-10-11T05:40:01.253Z,88.24
2018-10-11T05:45:01.526Z,87.94
2018-10-11T05:50:01.933Z,87.64
2018-10-11T05:55:01.280Z,87.25
2018-10-11T06:00:01.638Z,86.98
2018-10-11T06:05:02.038Z,86.98
2018-10-11T06:10:01.287Z,86.87
2018-10-11T06:15:01.571Z,86.75
2018-10-11T06:20:01.964Z,86.66
2018-10-11T06:25:01.267Z,86.68
2018-10-11T06:30:01.533Z,86.69
2018-10-11T06:35:01.882Z,86.59
2018-10-11T06:40:02.204Z,86.54
2018-10-11T06:45:01.514Z,86.2
2018-10-11T06:50:02.097Z,85.71
2018-10-11T06:55:01.637Z,84.95
2018-10-11T07:00:01.999Z,84.21
2018-10-11T07:05:01.277Z,83.92
2018-10-11T07:10:01.554Z,83.89
2018-10-11T07:15:01.863Z,83.09
2018-10-11T07:20:02.172Z,82.38
2018-10-11T07:25:01.469Z,82.02
2018-10-11T07:30:01.749Z,81.8
2018-10-11T07:35:02.292Z,80.96
2018-10-11T07:40:01.788Z,80.93
2018-10-11T07:45:02.052Z,80.33
2018-10-11T07:50:01.333Z,80.22
2018-10-11T07:55:01.579Z,79.83
2018-10-11T08:00:01.905Z,79
2018-10-11T08:05:01.199Z,78.77
2018-10-11T08:10:01.450Z,78.47
2018-10-11T08:15:01.767Z,77.94
2018-10-11T08:20:02.567Z,77.29
2018-10-11T08:25:02.595Z,76.11
2018-10-11T08:30:01.205Z,75.27
2018-10-11T08:35:01.487Z,74.49
2018-10-11T08:40:01.852Z,74.33
2018-10-11T08:45:02.168Z,74.24
2018-10-11T08:50:01.431Z,74.27
2018-10-11T08:55:01.786Z,74.72
2018-10-11T09:00:02.485Z,73.82
2018-10-11T09:05:01.981Z,74.07
2018-10-11T09:10:01.545Z,73.2
2018-10-11T09:15:01.844Z,72.21
2018-10-11T09:20:02.204Z,72.74
2018-10-11T09:25:01.518Z,72.11
2018-10-11T09:30:01.842Z,71.5
2018-10-11T09:35:02.140Z,71.01
2018-10-11T09:40:01.422Z,70.54
2018-10-11T09:45:01.716Z,70.39
2018-10-11T09:50:02.014Z,70.09
2018-10-11T09:55:01.332Z,70.63
2018-10-11T10:00:01.674Z,69.66
2018-10-11T10:05:02.036Z,69.25
2018-10-11T10:10:01.859Z,68.95
2018-10-11T10:15:01.425Z,67.76
2018-10-11T10:20:01.741Z,67.03
2018-10-11T10:25:02.038Z,67.15
2018-10-11T10:30:01.293Z,66.59
2018-10-11T10:35:01.641Z,66.59
2018-10-11T10:40:02.270Z,65.83
2018-10-11T10:45:01.731Z,66.9
2018-10-11T10:50:01.998Z,67.31
2018-10-11T10:55:01.300Z,67.3
2018-10-11T11:00:01.625Z,67.21
2018-10-11T11:05:02.045Z,66.28
2018-10-11T11:10:01.353Z,67.6
2018-10-11T11:15:01.677Z,67.37
2018-10-11T11:20:02.013Z,66.8
2018-10-11T11:25:01.349Z,67.44
2018-10-11T11:30:01.808Z,67.58
2018-10-11T11:35:02.157Z,67.4
2018-10-11T11:40:01.697Z,66.96
2018-10-11T11:45:01.199Z,66.26
2018-10-11T11:50:01.517Z,67.47
2018-10-11T11:55:01.878Z,66.94
2018-10-11T12:00:02.161Z,67.19
2018-10-11T12:05:01.615Z,67.31
2018-10-11T12:10:02.206Z,67.51
2018-10-11T12:15:01.493Z,67.42
2018-10-11T12:20:01.849Z,67.85
2018-10-11T12:25:02.595Z,67.93
2018-10-11T12:30:02.072Z,68.65
2018-10-11T12:35:01.337Z,69.02
2018-10-11T12:40:01.626Z,69.37
2018-10-11T12:45:01.967Z,69.08
2018-10-11T12:50:01.468Z,68.77
2018-10-11T12:55:01.974Z,68.87
2018-10-11T13:00:01.378Z,69.09
2018-10-11T13:05:01.810Z,69.33
2018-10-11T13:10:02.247Z,69.34
2018-10-11T13:15:01.530Z,69.13
2018-10-11T13:20:01.971Z,69.14
2018-10-11T13:25:01.303Z,68.44
2018-10-11T13:30:01.680Z,67.59
2018-10-11T13:35:02.168Z,67.49
2018-10-11T13:40:01.584Z,67.48
2018-10-11T13:45:01.893Z,66.95
2018-10-11T13:50:02.246Z,67.15
2018-10-11T13:55:14.191Z,67.18
2018-10-11T14:00:01.642Z,66.99
2018-10-11T14:05:02.074Z,67.05
2018-10-11T14:10:01.528Z,66.78
2018-10-11T14:15:01.862Z,67.05
2018-10-11T14:20:02.161Z,66.44
2018-10-11T14:25:01.585Z,65.76
2018-10-11T14:30:01.945Z,66.28
2018-10-11T14:35:01.250Z,66.21
2018-10-11T14:40:01.552Z,66.38
2018-10-11T14:45:01.851Z,66.52
2018-10-11T14:50:02.243Z,65.97
2018-10-11T14:55:01.539Z,65.8
2018-10-11T15:00:01.827Z,66.17
2018-10-11T15:05:02.263Z,65.93
2018-10-11T15:10:01.710Z,66.12
2018-10-11T15:15:02.051Z,66.45
2018-10-11T15:20:01.352Z,66.32
2018-10-11T15:25:01.778Z,66.13
2018-10-11T15:30:02.105Z,66.2
2018-10-11T15:35:01.628Z,65.97
2018-10-11T15:40:01.158Z,65.72
2018-10-11T15:45:01.403Z,65.74
2018-10-11T15:50:01.779Z,65.7
2018-10-11T15:55:02.062Z,65.49
2018-10-11T16:00:01.341Z,65.61
2018-10-11T16:05:01.782Z,65.38
2018-10-11T16:10:02.174Z,65.36
2018-10-11T16:15:01.461Z,65.23
2018-10-11T16:20:01.801Z,65.64
2018-10-11T16:25:02.173Z,66.08
2018-10-11T16:30:01.438Z,66.12
2018-10-11T16:35:01.775Z,66.43
2018-10-11T16:40:02.153Z,66.72
2018-10-11T16:45:01.519Z,67.17
2018-10-11T16:50:02.120Z,67.57
2018-10-11T16:55:01.555Z,68.14
2018-10-11T17:00:01.848Z,68.65
2018-10-11T17:05:01.228Z,69.31
2018-10-11T17:10:01.863Z,70
2018-10-11T17:15:01.594Z,70.51
2018-10-11T17:20:01.884Z,70.73
2018-10-11T17:25:02.270Z,70.89
2018-10-11T17:30:01.607Z,70.93
2018-10-11T17:35:02.074Z,71.02
2018-10-11T17:40:01.458Z,71.24
2018-10-11T17:45:01.813Z,71.11
2018-10-11T17:50:02.220Z,71.2
2018-10-11T17:55:01.581Z,71.2
2018-10-11T18:00:01.908Z,70.99
2018-10-11T18:05:01.278Z,71.08
2018-10-11T18:10:01.803Z,70.84
2018-10-11T18:15:01.229Z,70.86
2018-10-11T18:20:01.548Z,70.48
2018-10-11T18:25:01.955Z,70.56
2018-10-11T18:30:01.318Z,70.53
2018-10-11T18:35:01.636Z,70.41
2018-10-11T18:40:01.941Z,70.69
2018-10-11T18:45:01.231Z,70.27
2018-10-11T18:50:01.487Z,70.53
2018-10-11T18:55:01.796Z,70.86
2018-10-11T19:00:02.131Z,70.88
2018-10-11T19:05:01.465Z,71.1
2018-10-11T19:10:01.793Z,71.41
2018-10-11T19:15:02.124Z,71.6
2018-10-11T19:20:01.423Z,71.9
2018-10-11T19:25:01.820Z,72.32
2018-10-11T19:30:02.154Z,72.66
2018-10-11T19:35:01.426Z,72.72
2018-10-11T19:40:01.946Z,73.09
2018-10-11T19:45:01.235Z,73.46
2018-10-11T19:50:01.496Z,73.71
2018-10-11T19:55:01.863Z,73.95
2018-10-11T20:00:02.266Z,74.23
2018-10-11T20:05:01.680Z,74.23
2018-10-11T20:10:02.041Z,74.39
2018-10-11T20:15:01.744Z,74.34
2018-10-11T20:20:02.134Z,74.66
2018-10-11T20:25:01.464Z,74.79
2018-10-11T20:30:01.771Z,75.1
2018-10-11T20:35:02.127Z,74.98
2018-10-11T20:40:01.400Z,75.18
2018-10-11T20:45:01.749Z,75.59
2018-10-11T20:50:02.041Z,75.89
2018-10-11T20:55:01.373Z,76.27
2018-10-11T21:00:01.713Z,76.23
2018-10-11T21:05:02.102Z,75.96
2018-10-11T21:10:01.443Z,76.09
2018-10-11T21:15:01.803Z,75.91
2018-10-11T21:20:02.329Z,76
2018-10-11T21:25:01.906Z,75.6
2018-10-11T21:30:02.235Z,75.61
2018-10-11T21:35:01.538Z,75.71
2018-10-11T21:40:01.924Z,75.64
2018-10-11T21:45:01.444Z,75.23
2018-10-11T21:50:01.784Z,75.43
2018-10-11T21:55:02.093Z,75.37
2018-10-11T22:00:01.377Z,75.32
2018-10-11T22:05:01.838Z,75.57
2018-10-11T22:10:01.193Z,75.81
2018-10-11T22:15:01.931Z,76
2018-10-11T22:20:01.769Z,76.35
2018-10-11T22:25:02.183Z,76.57
2018-10-11T22:30:01.462Z,76.51
2018-10-11T22:35:01.812Z,76.74
2018-10-11T22:40:02.161Z,76.7
2018-10-11T22:45:01.516Z,76.87
2018-10-11T22:50:01.796Z,76.47
2018-10-11T22:55:02.055Z,76.73
2018-10-11T23:00:01.318Z,76.83
2018-10-11T23:05:01.707Z,76.97
2018-10-11T23:10:02.023Z,76.97
2018-10-11T23:15:01.426Z,77.46
2018-10-11T23:20:01.943Z,77.58
2018-10-11T23:25:01.267Z,77.61
2018-10-11T23:30:01.542Z,77.71
2018-10-11T23:35:01.868Z,77.74
2018-10-11T23:40:02.217Z,78.02
2018-10-11T23:45:01.508Z,78.53
2018-10-11T23:50:01.794Z,78.95
2018-10-11T23:55:02.145Z,79.41
